sensor_id;sensor_type;location;lat;lon;timestamp;P1;durP1;ratioP1;P2;durP2;ratioP2
23494;SDS011;26107;50.832;2.950;2023-04-01T00:04:33;8.75;;;1.80;;
23494;SDS011;26107;50.832;2.950;2023-04-01T00:19:34;7.05;;;1.95;;
23494;SDS011;26107;50.832;2.950;2023-04-01T00:34:35;9.40;;;2.47;;
23494;SDS011;26107;50.832;2.950;2023-04-01T00:49:37;6.95;;;2.30;;
23494;SDS011;26107;50.832;2.950;2023-04-01T01:04:40;6.72;;;3.63;;
23494;SDS011;26107;50.832;2.950;2023-04-01T01:19:52;9.20;;;3.97;;
23494;SDS011;26107;50.832;2.950;2023-04-01T01:50:30;15.98;;;5.05;;
23494;SDS011;26107;50.832;2.950;2023-04-01T02:05:31;9.57;;;4.70;;
23494;SDS011;26107;50.832;2.950;2023-04-01T02:20:32;9.50;;;4.45;;
23494;SDS011;26107;50.832;2.950;2023-04-01T02:35:35;11.43;;;4.40;;
23494;SDS011;26107;50.832;2.950;2023-04-01T02:50:37;6.70;;;5.05;;
23494;SDS011;26107;50.832;2.950;2023-04-01T03:05:37;11.98;;;5.65;;
23494;SDS011;26107;50.832;2.950;2023-04-01T03:20:38;11.02;;;5.95;;
23494;SDS011;26107;50.832;2.950;2023-04-01T03:35:38;10.00;;;5.82;;
23494;SDS011;26107;50.832;2.950;2023-04-01T03:50:39;11.30;;;5.20;;
23494;SDS011;26107;50.832;2.950;2023-04-01T04:05:46;8.68;;;5.60;;
23494;SDS011;26107;50.832;2.950;2023-04-01T04:20:49;7.27;;;5.00;;
23494;SDS011;26107;50.832;2.950;2023-04-01T04:35:51;7.40;;;4.78;;
23494;SDS011;26107;50.832;2.950;2023-04-01T04:50:54;6.57;;;4.60;;
23494;SDS011;26107;50.832;2.950;2023-04-01T05:05:55;6.57;;;4.45;;
23494;SDS011;26107;50.832;2.950;2023-04-01T05:20:55;9.77;;;5.05;;
23494;SDS011;26107;50.832;2.950;2023-04-01T05:35:56;6.80;;;4.45;;
23494;SDS011;26107;50.832;2.950;2023-04-01T05:51:13;6.63;;;4.72;;
23494;SDS011;26107;50.832;2.950;2023-04-01T06:06:15;6.68;;;4.28;;
23494;SDS011;26107;50.832;2.950;2023-04-01T06:51:47;7.03;;;3.67;;
23494;SDS011;26107;50.832;2.950;2023-04-01T07:07:24;7.07;;;4.45;;
23494;SDS011;26107;50.832;2.950;2023-04-01T07:22:49;4.43;;;3.53;;
23494;SDS011;26107;50.832;2.950;2023-04-01T07:38:12;5.00;;;1.70;;
23494;SDS011;26107;50.832;2.950;2023-04-01T07:54:00;5.90;;;4.60;;
23494;SDS011;26107;50.832;2.950;2023-04-01T08:24:18;6.67;;;4.07;;
23494;SDS011;26107;50.832;2.950;2023-04-01T08:39:37;6.20;;;3.33;;
23494;SDS011;26107;50.832;2.950;2023-04-01T09:41:29;4.43;;;2.22;;
23494;SDS011;26107;50.832;2.950;2023-04-01T09:56:41;3.00;;;1.20;;
23494;SDS011;26107;50.832;2.950;2023-04-01T11:44:20;1.27;;;1.03;;
23494;SDS011;26107;50.832;2.950;2023-04-01T11:59:32;2.70;;;0.90;;
23494;SDS011;26107;50.832;2.950;2023-04-01T12:30:27;1.60;;;1.17;;
23494;SDS011;26107;50.832;2.950;2023-04-01T13:01:00;3.05;;;1.38;;
23494;SDS011;26107;50.832;2.950;2023-04-01T13:47:15;2.55;;;1.10;;
23494;SDS011;26107;50.832;2.950;2023-04-01T14:33:10;1.20;;;0.88;;
23494;SDS011;26107;50.832;2.950;2023-04-01T15:03:53;0.95;;;0.77;;
23494;SDS011;26107;50.832;2.950;2023-04-01T15:19:05;2.50;;;0.98;;
23494;SDS011;26107;50.832;2.950;2023-04-01T16:21:07;1.40;;;0.80;;
23494;SDS011;26107;50.832;2.950;2023-04-01T17:37:36;3.88;;;1.23;;
23494;SDS011;26107;50.832;2.950;2023-04-01T17:52:47;4.60;;;1.10;;
23494;SDS011;26107;50.832;2.950;2023-04-01T18:08:03;3.03;;;1.33;;
23494;SDS011;26107;50.832;2.950;2023-04-01T18:23:14;2.53;;;1.70;;
23494;SDS011;26107;50.832;2.950;2023-04-01T18:38:35;6.20;;;2.45;;
23494;SDS011;26107;50.832;2.950;2023-04-01T19:08:43;5.95;;;1.90;;
23494;SDS011;26107;50.832;2.950;2023-04-01T21:11:18;23.20;;;8.70;;
23494;SDS011;26107;50.832;2.950;2023-04-01T21:26:59;31.80;;;11.10;;
23494;SDS011;26107;50.832;2.950;2023-04-01T22:28:09;23.48;;;8.82;;
23494;SDS011;26107;50.832;2.950;2023-04-01T22:58:34;23.75;;;7.50;;
23494;SDS011;26107;50.832;2.950;2023-04-01T23:13:53;25.10;;;9.63;;
23494;SDS011;26107;50.832;2.950;2023-04-01T23:29:18;26.77;;;11.73;;
23494;SDS011;26107;50.832;2.950;2023-04-01T23:44:20;15.70;;;7.30;;
23494;SDS011;26107;50.832;2.950;2023-04-01T23:59:31;25.80;;;11.47;;
